sensor_id;sensor_type;location;lat;lon;timestamp;P1;durP1;ratioP1;P2;durP2;ratioP2
6640;SDS011;3356;49.360;8.266;2022-07-10T00:01:41;2.83;;;2.63;;
6640;SDS011;3356;49.360;8.266;2022-07-10T00:03:42;4.13;;;2.60;;
6640;SDS011;3356;49.360;8.266;2022-07-10T00:05:44;2.90;;;2.70;;
6640;SDS011;3356;49.360;8.266;2022-07-10T00:07:46;4.57;;;3.27;;
6640;SDS011;3356;49.360;8.266;2022-07-10T00:09:48;3.13;;;2.60;;
6640;SDS011;3356;49.360;8.266;2022-07-10T00:11:49;3.63;;;2.53;;
6640;SDS011;3356;49.360;8.266;2022-07-10T00:13:50;3.30;;;2.73;;
6640;SDS011;3356;49.360;8.266;2022-07-10T00:15:51;3.10;;;1.90;;
6640;SDS011;3356;49.360;8.266;2022-07-10T00:17:52;6.27;;;2.30;;
6640;SDS011;3356;49.360;8.266;2022-07-10T00:19:53;3.27;;;2.23;;
6640;SDS011;3356;49.360;8.266;2022-07-10T00:21:55;3.03;;;2.30;;
6640;SDS011;3356;49.360;8.266;2022-07-10T00:23:56;2.83;;;2.50;;
6640;SDS011;3356;49.360;8.266;2022-07-10T00:25:57;4.83;;;2.43;;
6640;SDS011;3356;49.360;8.266;2022-07-10T00:27:58;3.57;;;2.53;;
6640;SDS011;3356;49.360;8.266;2022-07-10T00:30:00;3.17;;;2.50;;
6640;SDS011;3356;49.360;8.266;2022-07-10T00:32:01;2.17;;;1.97;;
6640;SDS011;3356;49.360;8.266;2022-07-10T00:34:03;3.70;;;2.63;;
6640;SDS011;3356;49.360;8.266;2022-07-10T00:36:04;3.10;;;2.77;;
6640;SDS011;3356;49.360;8.266;2022-07-10T00:38:06;4.23;;;2.90;;
6640;SDS011;3356;49.360;8.266;2022-07-10T00:40:08;7.80;;;2.90;;
6640;SDS011;3356;49.360;8.266;2022-07-10T00:42:10;3.40;;;3.10;;
6640;SDS011;3356;49.360;8.266;2022-07-10T00:44:13;4.80;;;3.23;;
6640;SDS011;3356;49.360;8.266;2022-07-10T00:46:15;5.97;;;3.77;;
6640;SDS011;3356;49.360;8.266;2022-07-10T00:48:20;4.80;;;3.47;;
6640;SDS011;3356;49.360;8.266;2022-07-10T00:50:21;4.00;;;3.70;;
6640;SDS011;3356;49.360;8.266;2022-07-10T00:52:23;6.70;;;3.67;;
6640;SDS011;3356;49.360;8.266;2022-07-10T00:54:25;5.33;;;4.00;;
6640;SDS011;3356;49.360;8.266;2022-07-10T00:56:26;6.13;;;3.93;;
6640;SDS011;3356;49.360;8.266;2022-07-10T00:58:28;5.90;;;3.80;;
6640;SDS011;3356;49.360;8.266;2022-07-10T01:00:29;10.17;;;3.90;;
6640;SDS011;3356;49.360;8.266;2022-07-10T01:02:31;6.23;;;4.00;;
6640;SDS011;3356;49.360;8.266;2022-07-10T01:04:32;4.93;;;3.37;;
6640;SDS011;3356;49.360;8.266;2022-07-10T01:06:34;5.40;;;3.00;;
6640;SDS011;3356;49.360;8.266;2022-07-10T01:08:35;4.57;;;2.40;;
6640;SDS011;3356;49.360;8.266;2022-07-10T01:10:36;3.03;;;2.47;;
6640;SDS011;3356;49.360;8.266;2022-07-10T01:12:38;2.97;;;2.10;;
6640;SDS011;3356;49.360;8.266;2022-07-10T01:14:40;4.60;;;2.53;;
6640;SDS011;3356;49.360;8.266;2022-07-10T01:16:42;2.93;;;2.30;;
6640;SDS011;3356;49.360;8.266;2022-07-10T01:18:43;3.37;;;2.73;;
6640;SDS011;3356;49.360;8.266;2022-07-10T01:20:44;7.63;;;2.33;;
6640;SDS011;3356;49.360;8.266;2022-07-10T01:22:45;3.67;;;2.53;;
6640;SDS011;3356;49.360;8.266;2022-07-10T01:24:46;2.40;;;2.20;;
6640;SDS011;3356;49.360;8.266;2022-07-10T01:26:47;3.23;;;2.03;;
6640;SDS011;3356;49.360;8.266;2022-07-10T01:28:49;4.37;;;2.30;;
6640;SDS011;3356;49.360;8.266;2022-07-10T01:30:54;5.87;;;2.90;;
6640;SDS011;3356;49.360;8.266;2022-07-10T01:32:55;6.47;;;3.07;;
6640;SDS011;3356;49.360;8.266;2022-07-10T01:34:56;3.10;;;2.63;;
6640;SDS011;3356;49.360;8.266;2022-07-10T01:36:58;4.83;;;2.70;;
6640;SDS011;3356;49.360;8.266;2022-07-10T01:38:59;7.37;;;2.20;;
6640;SDS011;3356;49.360;8.266;2022-07-10T01:41:00;5.60;;;2.63;;
6640;SDS011;3356;49.360;8.266;2022-07-10T01:43:01;4.23;;;2.20;;
6640;SDS011;3356;49.360;8.266;2022-07-10T01:45:04;2.90;;;2.10;;
6640;SDS011;3356;49.360;8.266;2022-07-10T01:47:06;3.40;;;2.10;;
6640;SDS011;3356;49.360;8.266;2022-07-10T01:49:09;2.23;;;1.87;;
6640;SDS011;3356;49.360;8.266;2022-07-10T01:51:11;3.33;;;2.00;;
6640;SDS011;3356;49.360;8.266;2022-07-10T01:53:12;4.43;;;2.20;;
6640;SDS011;3356;49.360;8.266;2022-07-10T01:55:13;4.63;;;2.30;;
6640;SDS011;3356;49.360;8.266;2022-07-10T01:57:15;2.83;;;2.20;;
6640;SDS011;3356;49.360;8.266;2022-07-10T01:59:16;4.33;;;2.00;;
6640;SDS011;3356;49.360;8.266;2022-07-10T02:01:17;4.00;;;2.20;;
6640;SDS011;3356;49.360;8.266;2022-07-10T02:03:19;4.80;;;2.90;;
6640;SDS011;3356;49.360;8.266;2022-07-10T02:05:39;4.63;;;2.60;;
6640;SDS011;3356;49.360;8.266;2022-07-10T02:07:40;4.73;;;3.27;;
6640;SDS011;3356;49.360;8.266;2022-07-10T02:09:41;4.53;;;2.70;;
6640;SDS011;3356;49.360;8.266;2022-07-10T02:11:43;4.57;;;2.97;;
6640;SDS011;3356;49.360;8.266;2022-07-10T02:13:45;3.10;;;2.50;;
6640;SDS011;3356;49.360;8.266;2022-07-10T02:15:46;4.93;;;2.50;;
6640;SDS011;3356;49.360;8.266;2022-07-10T02:17:47;6.53;;;2.70;;
6640;SDS011;3356;49.360;8.266;2022-07-10T02:19:49;5.23;;;2.40;;
6640;SDS011;3356;49.360;8.266;2022-07-10T02:21:50;4.00;;;2.03;;
6640;SDS011;3356;49.360;8.266;2022-07-10T02:23:52;4.93;;;2.90;;
6640;SDS011;3356;49.360;8.266;2022-07-10T02:25:53;5.07;;;2.90;;
6640;SDS011;3356;49.360;8.266;2022-07-10T02:27:54;4.77;;;2.07;;
6640;SDS011;3356;49.360;8.266;2022-07-10T02:29:55;4.60;;;2.60;;
6640;SDS011;3356;49.360;8.266;2022-07-10T02:31:56;3.20;;;1.97;;
6640;SDS011;3356;49.360;8.266;2022-07-10T02:33:57;5.07;;;2.53;;
6640;SDS011;3356;49.360;8.266;2022-07-10T02:35:59;5.63;;;2.63;;
6640;SDS011;3356;49.360;8.266;2022-07-10T02:38:00;3.20;;;2.10;;
6640;SDS011;3356;49.360;8.266;2022-07-10T02:40:01;5.40;;;2.00;;
6640;SDS011;3356;49.360;8.266;2022-07-10T02:42:02;4.00;;;1.83;;
6640;SDS011;3356;49.360;8.266;2022-07-10T02:44:04;3.23;;;1.63;;
6640;SDS011;3356;49.360;8.266;2022-07-10T02:46:05;6.67;;;2.40;;
6640;SDS011;3356;49.360;8.266;2022-07-10T02:48:06;4.10;;;2.40;;
6640;SDS011;3356;49.360;8.266;2022-07-10T02:50:08;4.57;;;2.40;;
6640;SDS011;3356;49.360;8.266;2022-07-10T02:52:09;2.50;;;1.90;;
6640;SDS011;3356;49.360;8.266;2022-07-10T02:54:11;4.70;;;2.10;;
6640;SDS011;3356;49.360;8.266;2022-07-10T02:56:12;2.90;;;1.83;;
6640;SDS011;3356;49.360;8.266;2022-07-10T02:58:13;4.43;;;1.70;;
6640;SDS011;3356;49.360;8.266;2022-07-10T03:00:15;6.30;;;1.70;;
6640;SDS011;3356;49.360;8.266;2022-07-10T03:02:17;4.13;;;1.60;;
6640;SDS011;3356;49.360;8.266;2022-07-10T03:04:18;2.27;;;1.60;;
6640;SDS011;3356;49.360;8.266;2022-07-10T03:06:19;6.90;;;1.87;;
6640;SDS011;3356;49.360;8.266;2022-07-10T03:08:20;2.67;;;1.60;;
6640;SDS011;3356;49.360;8.266;2022-07-10T03:10:21;3.33;;;1.80;;
6640;SDS011;3356;49.360;8.266;2022-07-10T03:12:22;5.07;;;1.80;;
6640;SDS011;3356;49.360;8.266;2022-07-10T03:14:24;1.83;;;1.40;;
6640;SDS011;3356;49.360;8.266;2022-07-10T03:16:25;3.77;;;1.73;;
6640;SDS011;3356;49.360;8.266;2022-07-10T03:18:26;5.13;;;1.57;;
6640;SDS011;3356;49.360;8.266;2022-07-10T03:20:27;2.10;;;1.47;;
6640;SDS011;3356;49.360;8.266;2022-07-10T03:22:28;2.73;;;1.47;;
6640;SDS011;3356;49.360;8.266;2022-07-10T03:24:31;3.90;;;1.63;;
6640;SDS011;3356;49.360;8.266;2022-07-10T03:26:32;2.80;;;1.40;;
6640;SDS011;3356;49.360;8.266;2022-07-10T03:28:33;3.67;;;1.40;;
6640;SDS011;3356;49.360;8.266;2022-07-10T03:30:34;2.93;;;1.50;;
6640;SDS011;3356;49.360;8.266;2022-07-10T03:32:35;2.67;;;1.50;;
6640;SDS011;3356;49.360;8.266;2022-07-10T03:34:37;2.93;;;1.47;;
6640;SDS011;3356;49.360;8.266;2022-07-10T03:36:38;3.37;;;1.40;;
6640;SDS011;3356;49.360;8.266;2022-07-10T03:38:40;1.87;;;1.20;;
6640;SDS011;3356;49.360;8.266;2022-07-10T03:40:41;3.23;;;1.70;;
6640;SDS011;3356;49.360;8.266;2022-07-10T03:42:42;4.97;;;1.63;;
6640;SDS011;3356;49.360;8.266;2022-07-10T03:44:43;2.67;;;1.57;;
6640;SDS011;3356;49.360;8.266;2022-07-10T03:46:45;3.67;;;1.60;;
6640;SDS011;3356;49.360;8.266;2022-07-10T03:48:46;7.43;;;1.87;;
6640;SDS011;3356;49.360;8.266;2022-07-10T03:50:49;5.07;;;1.77;;
6640;SDS011;3356;49.360;8.266;2022-07-10T03:52:51;1.83;;;1.40;;
6640;SDS011;3356;49.360;8.266;2022-07-10T03:54:53;2.90;;;1.97;;
6640;SDS011;3356;49.360;8.266;2022-07-10T03:56:55;3.37;;;1.97;;
6640;SDS011;3356;49.360;8.266;2022-07-10T03:59:18;4.17;;;1.50;;
6640;SDS011;3356;49.360;8.266;2022-07-10T04:01:20;4.83;;;1.73;;
6640;SDS011;3356;49.360;8.266;2022-07-10T04:03:21;4.07;;;1.50;;
6640;SDS011;3356;49.360;8.266;2022-07-10T04:05:22;4.13;;;1.60;;
6640;SDS011;3356;49.360;8.266;2022-07-10T04:07:23;4.37;;;2.10;;
6640;SDS011;3356;49.360;8.266;2022-07-10T04:09:25;2.27;;;1.70;;
6640;SDS011;3356;49.360;8.266;2022-07-10T04:11:26;4.13;;;1.87;;
6640;SDS011;3356;49.360;8.266;2022-07-10T04:13:27;4.30;;;1.70;;
6640;SDS011;3356;49.360;8.266;2022-07-10T04:15:28;2.57;;;1.90;;
6640;SDS011;3356;49.360;8.266;2022-07-10T04:17:29;3.00;;;1.70;;
6640;SDS011;3356;49.360;8.266;2022-07-10T04:19:32;4.73;;;1.80;;
6640;SDS011;3356;49.360;8.266;2022-07-10T04:21:34;2.27;;;1.77;;
6640;SDS011;3356;49.360;8.266;2022-07-10T04:23:35;3.43;;;1.80;;
6640;SDS011;3356;49.360;8.266;2022-07-10T04:25:36;3.23;;;1.40;;
6640;SDS011;3356;49.360;8.266;2022-07-10T04:27:37;3.33;;;1.80;;
6640;SDS011;3356;49.360;8.266;2022-07-10T04:29:39;3.93;;;1.97;;
6640;SDS011;3356;49.360;8.266;2022-07-10T04:31:40;5.20;;;2.07;;
6640;SDS011;3356;49.360;8.266;2022-07-10T04:33:41;4.43;;;1.90;;
6640;SDS011;3356;49.360;8.266;2022-07-10T04:35:42;3.10;;;1.87;;
6640;SDS011;3356;49.360;8.266;2022-07-10T04:37:43;5.10;;;1.70;;
6640;SDS011;3356;49.360;8.266;2022-07-10T04:39:44;3.37;;;2.03;;
6640;SDS011;3356;49.360;8.266;2022-07-10T04:41:45;7.00;;;2.07;;
6640;SDS011;3356;49.360;8.266;2022-07-10T04:43:46;4.33;;;2.07;;
6640;SDS011;3356;49.360;8.266;2022-07-10T04:45:48;5.27;;;2.10;;
6640;SDS011;3356;49.360;8.266;2022-07-10T04:47:49;3.07;;;2.20;;
6640;SDS011;3356;49.360;8.266;2022-07-10T04:49:50;2.97;;;1.93;;
6640;SDS011;3356;49.360;8.266;2022-07-10T04:51:51;4.70;;;2.20;;
6640;SDS011;3356;49.360;8.266;2022-07-10T04:53:52;6.53;;;2.70;;
6640;SDS011;3356;49.360;8.266;2022-07-10T04:55:53;7.20;;;2.47;;
6640;SDS011;3356;49.360;8.266;2022-07-10T04:57:54;7.23;;;2.70;;
6640;SDS011;3356;49.360;8.266;2022-07-10T04:59:56;6.40;;;2.13;;
6640;SDS011;3356;49.360;8.266;2022-07-10T05:01:57;4.13;;;2.00;;
6640;SDS011;3356;49.360;8.266;2022-07-10T05:03:58;5.03;;;1.93;;
6640;SDS011;3356;49.360;8.266;2022-07-10T05:05:59;3.77;;;1.77;;
6640;SDS011;3356;49.360;8.266;2022-07-10T05:08:00;3.90;;;2.13;;
6640;SDS011;3356;49.360;8.266;2022-07-10T05:10:02;2.93;;;2.13;;
6640;SDS011;3356;49.360;8.266;2022-07-10T05:12:03;5.80;;;2.80;;
6640;SDS011;3356;49.360;8.266;2022-07-10T05:14:05;6.63;;;2.50;;
6640;SDS011;3356;49.360;8.266;2022-07-10T05:16:06;4.67;;;1.70;;
6640;SDS011;3356;49.360;8.266;2022-07-10T05:18:07;6.50;;;2.27;;
6640;SDS011;3356;49.360;8.266;2022-07-10T05:20:09;4.33;;;1.63;;
6640;SDS011;3356;49.360;8.266;2022-07-10T05:22:11;2.63;;;1.57;;
6640;SDS011;3356;49.360;8.266;2022-07-10T05:24:12;4.67;;;1.90;;
6640;SDS011;3356;49.360;8.266;2022-07-10T05:26:13;4.57;;;1.80;;
6640;SDS011;3356;49.360;8.266;2022-07-10T05:28:14;3.63;;;1.67;;
6640;SDS011;3356;49.360;8.266;2022-07-10T05:30:15;3.50;;;1.67;;
6640;SDS011;3356;49.360;8.266;2022-07-10T05:32:17;3.90;;;1.47;;
6640;SDS011;3356;49.360;8.266;2022-07-10T05:34:18;5.37;;;1.47;;
6640;SDS011;3356;49.360;8.266;2022-07-10T05:36:19;4.77;;;1.67;;
6640;SDS011;3356;49.360;8.266;2022-07-10T05:38:20;2.17;;;1.40;;
6640;SDS011;3356;49.360;8.266;2022-07-10T05:40:21;3.00;;;1.63;;
6640;SDS011;3356;49.360;8.266;2022-07-10T05:42:22;2.57;;;1.53;;
6640;SDS011;3356;49.360;8.266;2022-07-10T05:44:24;4.13;;;1.80;;
6640;SDS011;3356;49.360;8.266;2022-07-10T05:46:25;4.67;;;1.40;;
6640;SDS011;3356;49.360;8.266;2022-07-10T05:48:26;2.60;;;1.40;;
6640;SDS011;3356;49.360;8.266;2022-07-10T05:50:27;3.50;;;1.63;;
6640;SDS011;3356;49.360;8.266;2022-07-10T05:52:29;4.40;;;1.50;;
6640;SDS011;3356;49.360;8.266;2022-07-10T05:54:30;2.87;;;1.40;;
6640;SDS011;3356;49.360;8.266;2022-07-10T05:56:31;3.10;;;1.10;;
6640;SDS011;3356;49.360;8.266;2022-07-10T05:58:32;2.57;;;1.20;;
6640;SDS011;3356;49.360;8.266;2022-07-10T06:00:33;2.90;;;1.27;;
6640;SDS011;3356;49.360;8.266;2022-07-10T06:02:34;4.00;;;1.30;;
6640;SDS011;3356;49.360;8.266;2022-07-10T06:04:36;1.57;;;1.17;;
6640;SDS011;3356;49.360;8.266;2022-07-10T06:06:37;2.23;;;1.10;;
6640;SDS011;3356;49.360;8.266;2022-07-10T06:08:38;4.80;;;1.00;;
6640;SDS011;3356;49.360;8.266;2022-07-10T06:10:39;3.17;;;1.40;;
6640;SDS011;3356;49.360;8.266;2022-07-10T06:12:40;2.60;;;1.13;;
6640;SDS011;3356;49.360;8.266;2022-07-10T06:14:42;2.43;;;0.90;;
6640;SDS011;3356;49.360;8.266;2022-07-10T06:16:43;3.80;;;1.23;;
6640;SDS011;3356;49.360;8.266;2022-07-10T06:18:44;4.83;;;1.17;;
6640;SDS011;3356;49.360;8.266;2022-07-10T06:20:45;4.93;;;1.53;;
6640;SDS011;3356;49.360;8.266;2022-07-10T06:22:46;2.73;;;1.00;;
6640;SDS011;3356;49.360;8.266;2022-07-10T06:24:47;4.03;;;1.10;;
6640;SDS011;3356;49.360;8.266;2022-07-10T06:26:48;2.53;;;1.40;;
6640;SDS011;3356;49.360;8.266;2022-07-10T06:28:49;2.07;;;0.70;;
6640;SDS011;3356;49.360;8.266;2022-07-10T06:30:51;3.30;;;1.20;;
6640;SDS011;3356;49.360;8.266;2022-07-10T06:32:52;2.87;;;0.97;;
6640;SDS011;3356;49.360;8.266;2022-07-10T06:34:53;2.20;;;0.80;;
6640;SDS011;3356;49.360;8.266;2022-07-10T06:36:55;2.83;;;1.03;;
6640;SDS011;3356;49.360;8.266;2022-07-10T06:38:56;2.30;;;0.70;;
6640;SDS011;3356;49.360;8.266;2022-07-10T06:40:57;1.20;;;0.97;;
6640;SDS011;3356;49.360;8.266;2022-07-10T06:42:58;4.40;;;1.17;;
6640;SDS011;3356;49.360;8.266;2022-07-10T06:44:59;4.13;;;1.10;;
6640;SDS011;3356;49.360;8.266;2022-07-10T06:47:01;1.33;;;0.70;;
6640;SDS011;3356;49.360;8.266;2022-07-10T06:49:21;3.00;;;0.90;;
6640;SDS011;3356;49.360;8.266;2022-07-10T06:51:22;2.13;;;1.07;;
6640;SDS011;3356;49.360;8.266;2022-07-10T06:53:23;2.03;;;0.70;;
6640;SDS011;3356;49.360;8.266;2022-07-10T06:55:27;2.13;;;0.90;;
6640;SDS011;3356;49.360;8.266;2022-07-10T06:57:29;2.83;;;0.90;;
6640;SDS011;3356;49.360;8.266;2022-07-10T06:59:31;2.10;;;0.67;;
6640;SDS011;3356;49.360;8.266;2022-07-10T07:01:32;1.40;;;0.80;;
6640;SDS011;3356;49.360;8.266;2022-07-10T07:03:33;2.45;;;1.00;;
6640;SDS011;3356;49.360;8.266;2022-07-10T07:05:34;1.17;;;0.60;;
6640;SDS011;3356;49.360;8.266;2022-07-10T07:07:36;1.67;;;0.98;;
6640;SDS011;3356;49.360;8.266;2022-07-10T07:09:37;2.80;;;0.80;;
6640;SDS011;3356;49.360;8.266;2022-07-10T07:11:38;2.28;;;0.60;;
6640;SDS011;3356;49.360;8.266;2022-07-10T07:13:39;1.83;;;0.77;;
6640;SDS011;3356;49.360;8.266;2022-07-10T07:15:41;2.70;;;0.90;;
6640;SDS011;3356;49.360;8.266;2022-07-10T07:17:52;1.50;;;0.80;;
6640;SDS011;3356;49.360;8.266;2022-07-10T07:20:26;1.33;;;0.90;;
6640;SDS011;3356;49.360;8.266;2022-07-10T07:22:45;3.42;;;0.90;;
6640;SDS011;3356;49.360;8.266;2022-07-10T07:25:06;1.98;;;0.73;;
6640;SDS011;3356;49.360;8.266;2022-07-10T07:27:10;3.55;;;0.82;;
6640;SDS011;3356;49.360;8.266;2022-07-10T07:29:12;2.63;;;1.08;;
6640;SDS011;3356;49.360;8.266;2022-07-10T07:31:14;2.58;;;0.93;;
6640;SDS011;3356;49.360;8.266;2022-07-10T07:33:18;0.60;;;0.60;;
6640;SDS011;3356;49.360;8.266;2022-07-10T07:35:19;2.60;;;0.70;;
6640;SDS011;3356;49.360;8.266;2022-07-10T07:37:20;1.35;;;0.70;;
6640;SDS011;3356;49.360;8.266;2022-07-10T07:39:21;1.35;;;0.68;;
6640;SDS011;3356;49.360;8.266;2022-07-10T07:41:23;2.63;;;0.68;;
6640;SDS011;3356;49.360;8.266;2022-07-10T07:43:24;3.58;;;1.02;;
6640;SDS011;3356;49.360;8.266;2022-07-10T07:45:25;1.83;;;0.90;;
6640;SDS011;3356;49.360;8.266;2022-07-10T07:47:26;3.75;;;1.00;;
6640;SDS011;3356;49.360;8.266;2022-07-10T07:49:28;2.13;;;0.60;;
6640;SDS011;3356;49.360;8.266;2022-07-10T07:51:29;0.93;;;0.65;;
6640;SDS011;3356;49.360;8.266;2022-07-10T07:53:30;1.92;;;0.82;;
6640;SDS011;3356;49.360;8.266;2022-07-10T07:55:32;4.05;;;0.75;;
6640;SDS011;3356;49.360;8.266;2022-07-10T07:57:34;2.65;;;1.00;;
6640;SDS011;3356;49.360;8.266;2022-07-10T07:59:35;0.80;;;0.60;;
6640;SDS011;3356;49.360;8.266;2022-07-10T08:01:36;1.38;;;0.90;;
6640;SDS011;3356;49.360;8.266;2022-07-10T08:03:38;3.78;;;0.90;;
6640;SDS011;3356;49.360;8.266;2022-07-10T08:05:39;1.75;;;0.80;;
6640;SDS011;3356;49.360;8.266;2022-07-10T08:07:43;5.90;;;1.00;;
6640;SDS011;3356;49.360;8.266;2022-07-10T08:09:49;1.90;;;1.08;;
6640;SDS011;3356;49.360;8.266;2022-07-10T08:11:51;5.45;;;0.77;;
6640;SDS011;3356;49.360;8.266;2022-07-10T08:13:52;1.20;;;0.73;;
6640;SDS011;3356;49.360;8.266;2022-07-10T08:15:54;1.80;;;0.70;;
6640;SDS011;3356;49.360;8.266;2022-07-10T08:17:56;1.45;;;0.90;;
6640;SDS011;3356;49.360;8.266;2022-07-10T08:19:58;2.05;;;0.80;;
6640;SDS011;3356;49.360;8.266;2022-07-10T08:21:59;2.40;;;0.90;;
6640;SDS011;3356;49.360;8.266;2022-07-10T08:24:00;1.33;;;0.70;;
6640;SDS011;3356;49.360;8.266;2022-07-10T08:26:01;3.03;;;0.95;;
6640;SDS011;3356;49.360;8.266;2022-07-10T08:28:03;0.63;;;0.52;;
6640;SDS011;3356;49.360;8.266;2022-07-10T08:30:06;1.85;;;0.80;;
6640;SDS011;3356;49.360;8.266;2022-07-10T08:32:11;2.25;;;0.93;;
6640;SDS011;3356;49.360;8.266;2022-07-10T08:34:12;4.10;;;1.20;;
6640;SDS011;3356;49.360;8.266;2022-07-10T08:36:13;1.83;;;0.80;;
6640;SDS011;3356;49.360;8.266;2022-07-10T08:38:14;1.85;;;0.88;;
6640;SDS011;3356;49.360;8.266;2022-07-10T08:40:16;1.92;;;0.90;;
6640;SDS011;3356;49.360;8.266;2022-07-10T08:42:19;2.47;;;0.85;;
6640;SDS011;3356;49.360;8.266;2022-07-10T08:44:21;2.30;;;1.00;;
6640;SDS011;3356;49.360;8.266;2022-07-10T08:46:23;1.30;;;0.77;;
6640;SDS011;3356;49.360;8.266;2022-07-10T08:48:24;1.30;;;0.85;;
6640;SDS011;3356;49.360;8.266;2022-07-10T08:50:25;3.70;;;0.98;;
6640;SDS011;3356;49.360;8.266;2022-07-10T08:52:49;1.63;;;0.95;;
6640;SDS011;3356;49.360;8.266;2022-07-10T08:55:13;2.72;;;0.98;;
6640;SDS011;3356;49.360;8.266;2022-07-10T08:57:15;2.03;;;0.90;;
6640;SDS011;3356;49.360;8.266;2022-07-10T08:59:18;1.48;;;1.00;;
6640;SDS011;3356;49.360;8.266;2022-07-10T09:01:21;3.35;;;0.85;;
6640;SDS011;3356;49.360;8.266;2022-07-10T09:03:23;2.35;;;1.02;;
6640;SDS011;3356;49.360;8.266;2022-07-10T09:05:25;1.55;;;0.80;;
6640;SDS011;3356;49.360;8.266;2022-07-10T09:07:34;1.95;;;0.90;;
6640;SDS011;3356;49.360;8.266;2022-07-10T09:09:52;2.08;;;0.98;;
6640;SDS011;3356;49.360;8.266;2022-07-10T09:11:57;2.97;;;1.08;;
6640;SDS011;3356;49.360;8.266;2022-07-10T09:14:00;1.85;;;1.08;;
6640;SDS011;3356;49.360;8.266;2022-07-10T09:16:08;1.90;;;1.05;;
6640;SDS011;3356;49.360;8.266;2022-07-10T09:18:40;1.70;;;0.90;;
6640;SDS011;3356;49.360;8.266;2022-07-10T09:20:41;2.08;;;0.80;;
6640;SDS011;3356;49.360;8.266;2022-07-10T09:22:44;3.50;;;0.93;;
6640;SDS011;3356;49.360;8.266;2022-07-10T09:24:45;1.02;;;0.80;;
6640;SDS011;3356;49.360;8.266;2022-07-10T09:27:08;2.40;;;0.90;;
6640;SDS011;3356;49.360;8.266;2022-07-10T09:29:12;1.40;;;0.77;;
6640;SDS011;3356;49.360;8.266;2022-07-10T09:31:13;1.23;;;1.00;;
6640;SDS011;3356;49.360;8.266;2022-07-10T09:35:31;3.97;;;1.08;;
6640;SDS011;3356;49.360;8.266;2022-07-10T09:37:51;1.52;;;1.02;;
6640;SDS011;3356;49.360;8.266;2022-07-10T09:40:05;4.07;;;1.40;;
6640;SDS011;3356;49.360;8.266;2022-07-10T09:42:08;4.20;;;1.05;;
6640;SDS011;3356;49.360;8.266;2022-07-10T09:44:28;5.78;;;1.00;;
6640;SDS011;3356;49.360;8.266;2022-07-10T09:48:34;1.95;;;0.75;;
6640;SDS011;3356;49.360;8.266;2022-07-10T09:50:36;2.67;;;1.02;;
6640;SDS011;3356;49.360;8.266;2022-07-10T09:52:37;1.98;;;1.08;;
6640;SDS011;3356;49.360;8.266;2022-07-10T09:54:39;3.47;;;0.80;;
6640;SDS011;3356;49.360;8.266;2022-07-10T09:56:41;2.95;;;1.13;;
6640;SDS011;3356;49.360;8.266;2022-07-10T09:58:44;3.35;;;0.90;;
6640;SDS011;3356;49.360;8.266;2022-07-10T10:00:50;4.63;;;1.00;;
6640;SDS011;3356;49.360;8.266;2022-07-10T10:02:54;2.50;;;0.88;;
6640;SDS011;3356;49.360;8.266;2022-07-10T10:04:58;1.20;;;0.85;;
6640;SDS011;3356;49.360;8.266;2022-07-10T10:07:00;1.25;;;0.85;;
6640;SDS011;3356;49.360;8.266;2022-07-10T10:09:07;2.05;;;0.85;;
6640;SDS011;3356;49.360;8.266;2022-07-10T10:11:25;1.92;;;1.00;;
6640;SDS011;3356;49.360;8.266;2022-07-10T10:13:27;3.97;;;1.08;;
6640;SDS011;3356;49.360;8.266;2022-07-10T10:15:30;2.88;;;0.98;;
6640;SDS011;3356;49.360;8.266;2022-07-10T10:17:31;1.65;;;0.93;;
6640;SDS011;3356;49.360;8.266;2022-07-10T10:19:35;2.22;;;1.10;;
6640;SDS011;3356;49.360;8.266;2022-07-10T10:21:57;1.25;;;0.95;;
6640;SDS011;3356;49.360;8.266;2022-07-10T10:23:58;4.45;;;0.98;;
6640;SDS011;3356;49.360;8.266;2022-07-10T10:26:01;0.80;;;0.60;;
6640;SDS011;3356;49.360;8.266;2022-07-10T10:28:04;1.30;;;0.90;;
6640;SDS011;3356;49.360;8.266;2022-07-10T10:30:07;0.88;;;0.60;;
6640;SDS011;3356;49.360;8.266;2022-07-10T10:32:09;3.58;;;0.70;;
6640;SDS011;3356;49.360;8.266;2022-07-10T10:34:10;1.77;;;0.75;;
6640;SDS011;3356;49.360;8.266;2022-07-10T10:36:12;1.55;;;0.63;;
6640;SDS011;3356;49.360;8.266;2022-07-10T10:38:17;1.58;;;0.80;;
6640;SDS011;3356;49.360;8.266;2022-07-10T10:40:33;3.35;;;1.25;;
6640;SDS011;3356;49.360;8.266;2022-07-10T10:42:41;2.45;;;0.90;;
6640;SDS011;3356;49.360;8.266;2022-07-10T10:44:46;2.88;;;1.00;;
6640;SDS011;3356;49.360;8.266;2022-07-10T10:49:07;3.25;;;0.90;;
6640;SDS011;3356;49.360;8.266;2022-07-10T10:51:09;1.90;;;0.63;;
6640;SDS011;3356;49.360;8.266;2022-07-10T10:53:20;1.23;;;0.63;;
6640;SDS011;3356;49.360;8.266;2022-07-10T10:55:27;1.15;;;0.80;;
6640;SDS011;3356;49.360;8.266;2022-07-10T10:59:49;3.95;;;1.00;;
6640;SDS011;3356;49.360;8.266;2022-07-10T11:04:26;1.38;;;0.50;;
6640;SDS011;3356;49.360;8.266;2022-07-10T11:07:01;1.58;;;0.77;;
6640;SDS011;3356;49.360;8.266;2022-07-10T11:08:54;1.83;;;1.00;;
6640;SDS011;3356;49.360;8.266;2022-07-10T11:11:00;2.88;;;1.00;;
6640;SDS011;3356;49.360;8.266;2022-07-10T11:13:02;1.63;;;0.80;;
6640;SDS011;3356;49.360;8.266;2022-07-10T11:15:04;3.15;;;0.90;;
6640;SDS011;3356;49.360;8.266;2022-07-10T11:17:09;3.20;;;0.95;;
6640;SDS011;3356;49.360;8.266;2022-07-10T11:19:10;2.40;;;0.90;;
6640;SDS011;3356;49.360;8.266;2022-07-10T11:21:12;1.33;;;0.75;;
6640;SDS011;3356;49.360;8.266;2022-07-10T11:26:34;2.10;;;1.30;;
6640;SDS011;3356;49.360;8.266;2022-07-10T11:30:45;2.58;;;2.33;;
6640;SDS011;3356;49.360;8.266;2022-07-10T11:32:53;3.05;;;2.08;;
6640;SDS011;3356;49.360;8.266;2022-07-10T11:34:55;2.28;;;1.17;;
6640;SDS011;3356;49.360;8.266;2022-07-10T11:36:57;2.80;;;1.00;;
6640;SDS011;3356;49.360;8.266;2022-07-10T11:41:04;2.38;;;0.93;;
6640;SDS011;3356;49.360;8.266;2022-07-10T11:43:12;2.10;;;1.00;;
6640;SDS011;3356;49.360;8.266;2022-07-10T11:45:24;3.13;;;0.77;;
6640;SDS011;3356;49.360;8.266;2022-07-10T11:47:25;4.63;;;2.55;;
6640;SDS011;3356;49.360;8.266;2022-07-10T11:49:26;6.18;;;2.13;;
6640;SDS011;3356;49.360;8.266;2022-07-10T11:51:28;2.60;;;1.38;;
6640;SDS011;3356;49.360;8.266;2022-07-10T11:53:37;3.22;;;1.30;;
6640;SDS011;3356;49.360;8.266;2022-07-10T11:55:38;3.95;;;1.20;;
6640;SDS011;3356;49.360;8.266;2022-07-10T11:57:43;9.00;;;7.93;;
6640;SDS011;3356;49.360;8.266;2022-07-10T11:59:48;11.23;;;7.38;;
6640;SDS011;3356;49.360;8.266;2022-07-10T12:01:52;2.38;;;1.65;;
6640;SDS011;3356;49.360;8.266;2022-07-10T12:04:13;3.33;;;1.63;;
6640;SDS011;3356;49.360;8.266;2022-07-10T12:06:16;4.32;;;1.30;;
6640;SDS011;3356;49.360;8.266;2022-07-10T12:08:17;2.55;;;1.63;;
6640;SDS011;3356;49.360;8.266;2022-07-10T12:10:19;2.92;;;1.88;;
6640;SDS011;3356;49.360;8.266;2022-07-10T12:12:22;2.75;;;1.73;;
6640;SDS011;3356;49.360;8.266;2022-07-10T12:14:23;3.92;;;1.13;;
6640;SDS011;3356;49.360;8.266;2022-07-10T12:16:26;1.45;;;0.77;;
6640;SDS011;3356;49.360;8.266;2022-07-10T12:18:27;2.75;;;1.55;;
6640;SDS011;3356;49.360;8.266;2022-07-10T12:20:29;2.47;;;1.80;;
6640;SDS011;3356;49.360;8.266;2022-07-10T12:22:31;7.00;;;3.85;;
6640;SDS011;3356;49.360;8.266;2022-07-10T12:24:32;3.63;;;1.17;;
6640;SDS011;3356;49.360;8.266;2022-07-10T12:26:34;3.17;;;1.45;;
6640;SDS011;3356;49.360;8.266;2022-07-10T12:30:53;2.75;;;1.08;;
6640;SDS011;3356;49.360;8.266;2022-07-10T12:32:55;2.08;;;1.30;;
6640;SDS011;3356;49.360;8.266;2022-07-10T12:35:07;2.00;;;1.10;;
6640;SDS011;3356;49.360;8.266;2022-07-10T12:37:16;3.88;;;0.88;;
6640;SDS011;3356;49.360;8.266;2022-07-10T12:39:21;2.60;;;1.48;;
6640;SDS011;3356;49.360;8.266;2022-07-10T12:41:23;3.35;;;1.08;;
6640;SDS011;3356;49.360;8.266;2022-07-10T12:43:26;2.20;;;1.13;;
6640;SDS011;3356;49.360;8.266;2022-07-10T12:45:28;1.88;;;1.00;;
6640;SDS011;3356;49.360;8.266;2022-07-10T12:47:29;2.40;;;1.60;;
6640;SDS011;3356;49.360;8.266;2022-07-10T12:49:30;2.30;;;1.35;;
6640;SDS011;3356;49.360;8.266;2022-07-10T12:52:18;2.30;;;1.10;;
6640;SDS011;3356;49.360;8.266;2022-07-10T12:54:37;4.00;;;0.95;;
6640;SDS011;3356;49.360;8.266;2022-07-10T12:56:38;2.17;;;0.85;;
6640;SDS011;3356;49.360;8.266;2022-07-10T12:58:43;2.60;;;1.10;;
6640;SDS011;3356;49.360;8.266;2022-07-10T13:00:46;1.42;;;0.90;;
6640;SDS011;3356;49.360;8.266;2022-07-10T13:03:03;4.22;;;1.15;;
6640;SDS011;3356;49.360;8.266;2022-07-10T13:05:09;3.95;;;1.20;;
6640;SDS011;3356;49.360;8.266;2022-07-10T13:07:13;2.10;;;0.85;;